createdAt,value
2023-03-02T00:01:10.807Z,4.45
2023-03-02T00:03:41.000Z,4.00
2023-03-02T00:06:09.634Z,4.78
2023-03-02T00:08:38.127Z,4.28
2023-03-02T00:11:05.343Z,4.28
2023-03-02T00:13:35.447Z,4.10
2023-03-02T00:16:02.597Z,4.60
2023-03-02T00:18:29.756Z,3.88
2023-03-02T00:20:56.750Z,4.75
2023-03-02T00:23:23.744Z,4.70
2023-03-02T00:25:50.863Z,4.35
2023-03-02T00:28:17.872Z,4.18
2023-03-02T00:30:44.921Z,4.63
2023-03-02T00:33:11.897Z,4.30
2023-03-02T00:35:40.336Z,4.22
2023-03-02T00:38:08.214Z,4.90
2023-03-02T00:40:36.098Z,4.28
2023-03-02T00:43:03.606Z,4.70
2023-03-02T00:45:30.765Z,4.95
2023-03-02T00:47:58.574Z,4.50
2023-03-02T00:50:25.660Z,4.13
2023-03-02T00:52:52.677Z,3.83
2023-03-02T00:55:20.002Z,4.38
2023-03-02T00:57:54.933Z,4.82
2023-03-02T01:00:28.520Z,4.75
2023-03-02T01:02:58.675Z,5.37
2023-03-02T01:05:25.856Z,4.68
2023-03-02T01:07:52.864Z,4.55
2023-03-02T01:10:20.467Z,4.13
2023-03-02T01:12:47.459Z,4.80
2023-03-02T01:15:14.555Z,5.28
2023-03-02T01:17:42.881Z,4.13
2023-03-02T01:20:11.519Z,5.20
2023-03-02T01:22:38.852Z,5.70
2023-03-02T01:25:06.300Z,4.60
2023-03-02T01:27:33.307Z,5.07
2023-03-02T01:30:00.357Z,5.32
2023-03-02T01:32:27.433Z,6.00
2023-03-02T01:34:54.949Z,5.20
2023-03-02T01:37:23.058Z,4.20
2023-03-02T01:39:50.771Z,5.10
2023-03-02T01:42:18.632Z,4.88
2023-03-02T01:44:48.612Z,4.72
2023-03-02T01:47:23.065Z,5.20
2023-03-02T01:50:27.069Z,5.20
2023-03-02T01:52:58.084Z,5.13
2023-03-02T01:55:29.177Z,4.90
2023-03-02T01:57:57.153Z,5.38
2023-03-02T02:00:28.267Z,5.80
2023-03-02T02:03:08.625Z,5.55
2023-03-02T02:05:39.348Z,5.72
2023-03-02T02:08:07.349Z,5.82
2023-03-02T02:10:35.374Z,5.88
2023-03-02T02:13:02.922Z,6.13
2023-03-02T02:15:30.320Z,6.40
2023-03-02T02:17:57.358Z,6.00
2023-03-02T02:20:39.292Z,5.93
2023-03-02T02:27:18.515Z,5.80
2023-03-02T02:29:51.435Z,6.00
2023-03-02T02:32:28.065Z,5.82
2023-03-02T02:35:07.343Z,5.88
2023-03-02T02:37:41.517Z,5.55
2023-03-02T02:40:42.027Z,5.43
2023-03-02T02:43:16.375Z,5.25
2023-03-02T02:45:43.875Z,6.30
2023-03-02T02:48:16.172Z,5.45
2023-03-02T02:50:44.260Z,6.85
2023-03-02T02:53:18.184Z,6.25
2023-03-02T02:55:48.276Z,4.82
2023-03-02T02:58:42.187Z,5.78
2023-03-02T03:01:17.717Z,5.43
2023-03-02T03:03:57.429Z,5.32
2023-03-02T03:06:38.175Z,5.80
2023-03-02T03:09:07.824Z,5.93
2023-03-02T03:11:43.407Z,5.57
2023-03-02T03:14:14.128Z,6.05
2023-03-02T03:16:43.894Z,6.70
2023-03-02T03:19:21.333Z,5.38
2023-03-02T03:21:51.450Z,6.65
2023-03-02T03:24:19.899Z,6.25
2023-03-02T03:26:47.522Z,6.07
2023-03-02T03:29:16.411Z,6.05
2023-03-02T03:31:43.786Z,5.32
2023-03-02T03:38:24.977Z,5.72
2023-03-02T03:40:52.241Z,5.35
2023-03-02T03:43:32.066Z,5.18
2023-03-02T03:49:07.260Z,5.72
2023-03-02T03:51:55.239Z,5.30
2023-03-02T03:54:27.462Z,5.60
2023-03-02T03:56:54.916Z,5.70
2023-03-02T03:59:24.520Z,5.82
2023-03-02T04:02:00.640Z,5.55
2023-03-02T04:04:48.051Z,5.45
2023-03-02T04:07:17.618Z,5.32
2023-03-02T04:09:46.296Z,6.13
2023-03-02T04:12:14.981Z,5.93
2023-03-02T04:14:50.209Z,6.35
2023-03-02T04:17:17.478Z,6.13
2023-03-02T04:19:47.017Z,6.20
2023-03-02T04:22:16.175Z,6.80
2023-03-02T04:24:43.847Z,6.88
2023-03-02T04:27:11.713Z,7.38
2023-03-02T04:29:39.044Z,7.90
2023-03-02T04:32:07.772Z,7.63
2023-03-02T04:34:37.575Z,7.15
2023-03-02T04:37:04.721Z,7.68
2023-03-02T04:39:31.839Z,8.40
2023-03-02T04:41:59.029Z,8.05
2023-03-02T04:44:26.133Z,9.00
2023-03-02T04:46:53.325Z,7.47
2023-03-02T04:49:20.524Z,9.02
2023-03-02T04:51:49.485Z,8.60
2023-03-02T04:54:20.916Z,8.63
2023-03-02T04:56:51.542Z,8.48
2023-03-02T04:59:20.984Z,8.05
2023-03-02T05:01:48.223Z,7.95
2023-03-02T05:04:15.671Z,8.27
2023-03-02T05:06:43.097Z,6.68
2023-03-02T05:09:10.890Z,6.82
2023-03-02T05:11:38.507Z,6.88
2023-03-02T05:14:07.542Z,6.60
2023-03-02T05:16:37.199Z,6.40
2023-03-02T05:19:07.006Z,7.05
2023-03-02T05:21:34.214Z,7.03
2023-03-02T05:24:01.343Z,5.72
2023-03-02T05:26:28.586Z,6.80
2023-03-02T05:28:56.034Z,5.75
2023-03-02T05:31:29.312Z,6.57
2023-03-02T05:33:56.362Z,6.05
2023-03-02T05:36:23.630Z,6.65
2023-03-02T05:38:50.672Z,5.65
2023-03-02T05:41:17.988Z,6.63
2023-03-02T05:43:45.064Z,7.10
2023-03-02T05:46:12.148Z,6.45
2023-03-02T05:48:39.223Z,6.82
2023-03-02T05:51:06.268Z,7.30
2023-03-02T06:01:23.834Z,7.10
2023-03-02T06:03:50.922Z,9.55
2023-03-02T06:06:18.001Z,8.40
2023-03-02T06:08:45.071Z,9.23
2023-03-02T06:11:12.823Z,7.43
2023-03-02T06:13:40.382Z,8.02
2023-03-02T06:16:08.175Z,7.50
2023-03-02T06:18:36.449Z,7.93
2023-03-02T06:21:03.918Z,8.60
2023-03-02T06:23:31.312Z,8.18
2023-03-02T06:25:58.913Z,8.73
2023-03-02T06:28:26.594Z,32.50
2023-03-02T06:30:53.800Z,10.73
2023-03-02T06:33:21.247Z,7.85
2023-03-02T06:35:49.067Z,10.63
2023-03-02T06:38:16.709Z,7.00
2023-03-02T06:40:43.941Z,8.15
2023-03-02T06:43:11.033Z,8.45
2023-03-02T06:45:38.353Z,7.35
2023-03-02T06:48:06.251Z,12.52
2023-03-02T06:50:33.908Z,7.93
2023-03-02T06:53:01.469Z,8.20
2023-03-02T06:55:28.484Z,7.68
2023-03-02T06:57:55.585Z,5.45
2023-03-02T07:00:27.948Z,6.38
2023-03-02T07:02:56.125Z,5.72
2023-03-02T07:05:24.340Z,5.78
2023-03-02T07:07:51.821Z,6.70
2023-03-02T07:10:19.281Z,6.22
2023-03-02T07:12:46.339Z,6.15
2023-03-02T07:15:14.298Z,6.32
2023-03-02T07:17:43.590Z,6.45
2023-03-02T07:20:12.942Z,6.03
2023-03-02T07:22:40.253Z,6.32
2023-03-02T07:25:08.523Z,6.85
2023-03-02T07:27:35.658Z,6.55
2023-03-02T07:30:04.128Z,6.45
2023-03-02T07:32:31.545Z,6.25
2023-03-02T07:34:58.631Z,6.80
2023-03-02T07:37:25.884Z,6.80
2023-03-02T07:39:52.932Z,22.38
2023-03-02T07:42:20.008Z,7.90
2023-03-02T07:44:54.489Z,7.82
2023-03-02T07:47:21.984Z,6.75
2023-03-02T07:49:49.024Z,5.85
2023-03-02T07:52:16.154Z,6.53
2023-03-02T07:54:43.240Z,6.35
2023-03-02T07:57:10.286Z,6.20
2023-03-02T07:59:37.266Z,7.00
2023-03-02T08:02:04.319Z,6.88
2023-03-02T08:04:31.725Z,6.30
2023-03-02T08:06:58.789Z,5.93
2023-03-02T08:09:25.775Z,4.82
2023-03-02T08:11:52.852Z,5.07
2023-03-02T08:14:19.837Z,5.47
2023-03-02T08:16:46.880Z,5.38
2023-03-02T08:19:13.934Z,5.65
2023-03-02T08:21:41.937Z,5.45
2023-03-02T08:24:09.880Z,5.70
2023-03-02T08:26:37.323Z,4.78
2023-03-02T08:29:05.545Z,5.35
2023-03-02T08:31:33.452Z,5.15
2023-03-02T08:34:00.798Z,4.75
2023-03-02T08:36:27.944Z,4.93
2023-03-02T08:38:55.097Z,4.85
2023-03-02T08:41:23.432Z,5.45
2023-03-02T08:43:53.942Z,4.63
2023-03-02T08:46:21.695Z,4.22
2023-03-02T08:48:51.138Z,3.90
2023-03-02T08:51:24.407Z,4.80
2023-03-02T08:53:55.016Z,4.47
2023-03-02T08:56:23.788Z,3.97
2023-03-02T08:58:52.555Z,4.38
2023-03-02T09:01:25.669Z,4.00
2023-03-02T09:03:52.775Z,5.20
2023-03-02T09:06:20.575Z,3.83
2023-03-02T09:08:48.034Z,3.78
2023-03-02T09:11:15.581Z,4.55
2023-03-02T09:13:42.704Z,4.15
2023-03-02T09:16:10.290Z,4.25
2023-03-02T09:18:37.809Z,3.53
2023-03-02T09:21:05.239Z,3.80
2023-03-02T09:23:33.270Z,3.88
2023-03-02T09:26:00.446Z,4.00
2023-03-02T09:28:27.486Z,4.05
2023-03-02T09:30:59.830Z,4.28
2023-03-02T09:33:27.884Z,4.03
2023-03-02T09:35:54.968Z,3.80
2023-03-02T09:38:22.114Z,3.72
2023-03-02T09:41:01.210Z,4.18
2023-03-02T09:44:19.251Z,3.55
2023-03-02T09:46:54.077Z,3.60
2023-03-02T09:49:55.209Z,3.47
2023-03-02T09:52:30.304Z,3.35
2023-03-02T09:55:12.081Z,3.25
2023-03-02T09:57:39.880Z,3.70
2023-03-02T10:00:24.410Z,2.75
2023-03-02T10:03:11.343Z,3.47
2023-03-02T10:05:46.548Z,2.90
2023-03-02T10:08:22.876Z,3.10
2023-03-02T10:11:10.747Z,4.32
2023-03-02T10:13:47.679Z,2.95
2023-03-02T10:16:37.207Z,3.08
2023-03-02T10:19:15.035Z,2.95
2023-03-02T10:21:51.433Z,3.30
2023-03-02T10:24:28.702Z,2.67
2023-03-02T10:27:11.550Z,2.95
2023-03-02T10:30:08.059Z,3.33
2023-03-02T10:32:43.489Z,3.03
2023-03-02T10:35:20.978Z,2.47
2023-03-02T10:37:48.846Z,3.70
2023-03-02T10:40:41.496Z,2.90
2023-03-02T10:43:17.899Z,3.03
2023-03-02T10:45:45.378Z,2.90
2023-03-02T10:48:14.512Z,2.53
2023-03-02T10:50:44.191Z,2.60
2023-03-02T10:53:17.620Z,2.88
2023-03-02T10:55:46.999Z,2.40
2023-03-02T10:58:30.402Z,2.33
2023-03-02T11:01:02.255Z,2.15
2023-03-02T11:03:30.078Z,2.28
2023-03-02T11:06:00.420Z,2.58
2023-03-02T11:08:28.127Z,2.70
2023-03-02T11:11:04.062Z,2.30
2023-03-02T11:13:32.928Z,2.13
2023-03-02T11:16:02.680Z,2.28
2023-03-02T11:18:50.601Z,3.75
2023-03-02T11:21:25.114Z,2.33
2023-03-02T11:24:14.032Z,1.95
2023-03-02T11:26:47.426Z,1.92
2023-03-02T11:29:28.912Z,2.83
2023-03-02T11:32:03.881Z,1.65
2023-03-02T11:34:39.868Z,2.10
2023-03-02T11:37:34.638Z,1.80
2023-03-02T11:40:22.962Z,1.75
2023-03-02T11:43:29.502Z,2.13
2023-03-02T11:46:13.964Z,2.25
2023-03-02T11:48:51.041Z,1.75
2023-03-02T11:51:28.106Z,2.88
2023-03-02T11:54:28.914Z,2.30
2023-03-02T11:56:57.848Z,2.08
2023-03-02T11:59:28.888Z,1.98
2023-03-02T12:05:03.291Z,2.00
2023-03-02T12:07:30.676Z,2.40
2023-03-02T12:10:23.962Z,2.53
2023-03-02T12:13:03.301Z,1.75
2023-03-02T12:15:38.673Z,2.08
2023-03-02T12:18:22.268Z,1.90
2023-03-02T12:21:02.349Z,2.33
2023-03-02T12:23:30.365Z,1.60
2023-03-02T12:26:06.558Z,2.55
2023-03-02T12:28:39.501Z,2.53
2023-03-02T12:31:11.077Z,2.10
2023-03-02T12:33:45.440Z,2.30
2023-03-02T12:36:22.148Z,1.63
2023-03-02T12:39:12.311Z,2.13
2023-03-02T12:42:07.189Z,2.33
2023-03-02T12:44:52.463Z,1.85
2023-03-02T12:47:27.106Z,2.72
2023-03-02T12:50:01.857Z,1.98
2023-03-02T12:52:35.183Z,2.03
2023-03-02T12:55:19.877Z,2.30
2023-03-02T12:57:50.758Z,2.20
2023-03-02T13:00:21.137Z,2.80
2023-03-02T13:02:51.645Z,1.83
2023-03-02T13:05:22.396Z,1.88
2023-03-02T13:07:58.898Z,2.00
2023-03-02T13:10:30.677Z,2.10
2023-03-02T13:12:59.952Z,2.30
2023-03-02T13:15:27.154Z,2.28
2023-03-02T13:17:59.560Z,2.42
2023-03-02T13:20:29.129Z,2.08
2023-03-02T13:22:56.561Z,2.42
2023-03-02T13:25:29.211Z,2.35
2023-03-02T13:30:31.033Z,2.55
2023-03-02T13:33:21.001Z,2.88
2023-03-02T13:35:48.287Z,2.17
2023-03-02T13:38:19.579Z,2.15
2023-03-02T13:40:49.456Z,2.28
2023-03-02T13:43:39.370Z,2.60
2023-03-02T13:46:26.878Z,3.55
2023-03-02T13:49:09.632Z,2.22
2023-03-02T13:52:20.707Z,3.83
2023-03-02T13:54:56.116Z,2.07
2023-03-02T14:04:36.255Z,2.55
2023-03-02T14:07:03.718Z,2.50
2023-03-02T14:09:30.707Z,2.58
2023-03-02T14:11:58.539Z,2.40
2023-03-02T14:14:27.676Z,2.28
2023-03-02T14:16:54.738Z,2.65
2023-03-02T14:19:21.831Z,2.53
2023-03-02T14:21:48.904Z,2.60
2023-03-02T14:24:16.016Z,2.30
2023-03-02T14:26:49.875Z,2.63
2023-03-02T14:29:22.754Z,2.83
2023-03-02T14:31:49.838Z,2.22
2023-03-02T14:34:17.618Z,2.58
2023-03-02T14:36:47.946Z,2.17
2023-03-02T14:39:24.043Z,2.17
2023-03-02T14:41:54.278Z,2.40
2023-03-02T14:44:22.515Z,2.80
2023-03-02T14:46:49.638Z,2.08
2023-03-02T14:49:16.762Z,2.20
2023-03-02T14:51:48.885Z,2.88
2023-03-02T14:54:19.773Z,2.33
2023-03-02T14:56:49.290Z,2.30
2023-03-02T14:59:18.446Z,3.20
2023-03-02T15:01:45.499Z,2.30
2023-03-02T15:04:12.532Z,2.53
2023-03-02T15:06:42.207Z,3.50
2023-03-02T15:09:10.871Z,3.00
2023-03-02T15:11:38.051Z,2.33
2023-03-02T15:14:05.154Z,2.03
2023-03-02T15:16:32.177Z,2.55
2023-03-02T15:18:59.365Z,2.90
2023-03-02T15:21:26.372Z,2.85
2023-03-02T15:23:53.472Z,2.78
2023-03-02T15:26:20.556Z,2.92
2023-03-02T15:28:52.729Z,3.03
2023-03-02T15:31:21.157Z,3.17
2023-03-02T15:33:48.736Z,3.28
2023-03-02T15:36:15.771Z,2.55
2023-03-02T15:38:42.846Z,2.67
2023-03-02T15:41:13.679Z,2.83
2023-03-02T15:43:41.088Z,2.38
2023-03-02T15:46:09.392Z,2.17
2023-03-02T15:48:37.467Z,2.67
2023-03-02T15:51:06.935Z,2.63
2023-03-02T15:53:38.679Z,2.38
2023-03-02T15:56:07.237Z,2.60
2023-03-02T15:58:35.203Z,2.55
2023-03-02T16:01:10.309Z,2.50
2023-03-02T16:03:38.355Z,2.58
2023-03-02T16:06:05.879Z,3.10
2023-03-02T16:08:32.912Z,3.33
2023-03-02T16:11:02.447Z,2.42
2023-03-02T16:13:30.461Z,2.83
2023-03-02T16:16:01.549Z,2.03
2023-03-02T16:18:28.641Z,2.53
2023-03-02T16:20:55.685Z,2.85
2023-03-02T16:23:23.528Z,2.90
2023-03-02T16:25:51.276Z,2.42
2023-03-02T16:28:19.999Z,3.55
2023-03-02T16:30:47.421Z,3.47
2023-03-02T16:33:17.738Z,2.53
2023-03-02T16:35:45.217Z,3.78
2023-03-02T16:38:12.338Z,2.63
2023-03-02T16:40:40.102Z,2.97
2023-03-02T16:43:10.371Z,2.95
2023-03-02T16:45:37.606Z,3.28
2023-03-02T16:48:05.604Z,2.85
2023-03-02T16:50:34.944Z,2.90
2023-03-02T16:53:02.141Z,2.88
2023-03-02T16:55:29.722Z,3.08
2023-03-02T16:57:56.802Z,3.53
2023-03-02T17:00:25.296Z,3.33
2023-03-02T17:02:53.953Z,2.97
2023-03-02T17:05:21.737Z,2.88
2023-03-02T17:07:49.541Z,3.40
2023-03-02T17:10:21.843Z,3.00
2023-03-02T17:12:48.952Z,3.15
2023-03-02T17:15:16.225Z,3.45
2023-03-02T17:17:43.246Z,3.75
2023-03-02T17:20:12.018Z,3.67
2023-03-02T17:22:39.291Z,4.13
2023-03-02T17:25:06.617Z,3.58
2023-03-02T17:27:33.821Z,3.55
2023-03-02T17:30:00.808Z,5.03
2023-03-02T17:32:27.870Z,3.45
2023-03-02T17:34:54.939Z,4.15
2023-03-02T17:37:21.986Z,3.78
2023-03-02T17:39:50.844Z,4.10
2023-03-02T17:42:18.654Z,3.45
2023-03-02T17:44:45.793Z,4.47
2023-03-02T17:47:15.600Z,4.43
2023-03-02T17:49:46.470Z,5.10
2023-03-02T17:52:15.294Z,4.57
2023-03-02T17:54:43.490Z,4.45
2023-03-02T17:57:13.646Z,4.75
2023-03-02T17:59:40.761Z,4.85
2023-03-02T18:02:07.897Z,4.85
2023-03-02T18:04:35.062Z,5.18
2023-03-02T18:07:02.392Z,5.03
2023-03-02T18:09:29.453Z,7.28
2023-03-02T18:11:56.453Z,4.90
2023-03-02T18:14:28.234Z,5.32
2023-03-02T18:16:55.335Z,5.15
2023-03-02T18:19:22.762Z,5.00
2023-03-02T18:21:49.776Z,5.57
2023-03-02T18:24:16.825Z,5.15
2023-03-02T18:26:44.039Z,5.53
2023-03-02T18:29:11.048Z,4.82
2023-03-02T18:31:38.501Z,4.55
2023-03-02T18:34:05.940Z,5.40
2023-03-02T18:36:33.163Z,3.97
2023-03-02T18:39:00.835Z,3.50
2023-03-02T18:41:27.899Z,3.63
2023-03-02T18:43:55.007Z,5.32
2023-03-02T18:46:24.660Z,4.40
2023-03-02T18:48:52.791Z,3.53
2023-03-02T18:51:21.686Z,5.13
2023-03-02T18:53:49.630Z,6.22
2023-03-02T18:56:17.723Z,5.15
2023-03-02T18:58:45.702Z,4.15
2023-03-02T19:01:13.493Z,4.78
2023-03-02T19:03:41.995Z,6.30
2023-03-02T19:06:09.154Z,5.88
2023-03-02T19:08:36.421Z,5.57
2023-03-02T19:11:04.901Z,5.10
2023-03-02T19:13:32.554Z,5.53
2023-03-02T19:16:01.827Z,5.82
2023-03-02T19:18:29.761Z,6.53
2023-03-02T19:20:57.590Z,7.07
2023-03-02T19:23:25.174Z,9.25
2023-03-02T19:25:53.124Z,8.40
2023-03-02T19:28:21.596Z,8.80
2023-03-02T19:30:50.373Z,9.15
2023-03-02T19:33:17.863Z,8.48
2023-03-02T19:35:44.984Z,7.32
2023-03-02T19:38:12.696Z,7.68
2023-03-02T19:40:40.146Z,7.97
2023-03-02T19:43:07.691Z,7.13
2023-03-02T19:45:35.842Z,7.82
2023-03-02T19:48:05.950Z,8.05
2023-03-02T19:50:33.285Z,7.05
2023-03-02T19:53:00.512Z,7.15
2023-03-02T19:55:27.797Z,6.93
2023-03-02T19:58:00.914Z,7.70
2023-03-02T20:00:36.212Z,7.47
2023-03-02T20:03:06.071Z,7.20
2023-03-02T20:05:33.173Z,7.68
2023-03-02T20:08:00.285Z,7.47
2023-03-02T20:10:38.256Z,7.80
2023-03-02T20:13:06.945Z,7.40
2023-03-02T20:15:38.099Z,8.57
2023-03-02T20:18:07.616Z,9.70
2023-03-02T20:20:35.214Z,8.00
2023-03-02T20:23:03.860Z,8.00
2023-03-02T20:25:30.980Z,7.82
2023-03-02T20:27:58.726Z,8.02
2023-03-02T20:30:33.750Z,8.43
2023-03-02T20:33:01.982Z,8.07
2023-03-02T20:35:32.430Z,8.55
2023-03-02T20:38:02.381Z,8.80
2023-03-02T20:40:29.634Z,10.45
2023-03-02T20:42:57.062Z,9.80
2023-03-02T20:45:24.583Z,9.25
2023-03-02T20:47:51.913Z,10.05
2023-03-02T20:50:23.804Z,9.88
2023-03-02T20:57:05.296Z,13.50
2023-03-02T21:04:36.848Z,11.43
2023-03-02T21:20:03.362Z,11.48
2023-03-02T21:22:30.410Z,10.93
2023-03-02T21:24:57.674Z,11.15
2023-03-02T21:27:24.764Z,12.10
2023-03-02T21:29:52.344Z,11.93
2023-03-02T21:32:19.466Z,12.85
2023-03-02T21:34:46.494Z,12.73
2023-03-02T21:37:13.723Z,14.55
2023-03-02T21:39:40.781Z,15.27
2023-03-02T21:42:07.849Z,12.70
2023-03-02T21:44:34.865Z,14.73
2023-03-02T21:51:15.298Z,17.77
2023-03-02T21:53:42.339Z,15.00
2023-03-02T21:56:15.866Z,12.07
2023-03-02T21:58:46.285Z,10.60
2023-03-02T22:01:15.023Z,10.43
2023-03-02T22:03:42.974Z,9.88
2023-03-02T22:06:17.116Z,10.93
2023-03-02T22:08:44.504Z,11.07
2023-03-02T22:11:19.330Z,10.98
2023-03-02T22:13:48.354Z,11.82
2023-03-02T22:16:18.832Z,11.07
2023-03-02T22:18:48.449Z,10.02
2023-03-02T22:21:36.847Z,11.25
2023-03-02T22:24:09.785Z,11.45
2023-03-02T22:26:49.520Z,9.02
2023-03-02T22:29:16.478Z,10.25
2023-03-02T22:31:47.349Z,9.35
2023-03-02T22:34:22.936Z,9.82
2023-03-02T22:36:50.031Z,12.52
2023-03-02T22:39:26.839Z,13.07
2023-03-02T22:42:06.161Z,10.80
2023-03-02T22:44:34.128Z,10.07
2023-03-02T22:47:02.442Z,9.80
2023-03-02T22:49:29.858Z,10.35
2023-03-02T22:52:01.679Z,10.90
2023-03-02T22:54:37.538Z,10.30
2023-03-02T22:57:23.250Z,11.10
2023-03-02T22:59:50.268Z,10.10
2023-03-02T23:02:22.196Z,10.85
2023-03-02T23:04:50.128Z,9.90
2023-03-02T23:07:22.155Z,9.23
2023-03-02T23:09:49.336Z,8.77
2023-03-02T23:12:26.087Z,9.00
2023-03-02T23:14:55.247Z,8.27
2023-03-02T23:17:35.776Z,8.07
2023-03-02T23:20:05.305Z,9.32
2023-03-02T23:22:32.344Z,8.80
2023-03-02T23:24:59.395Z,8.20
2023-03-02T23:27:26.495Z,8.48
2023-03-02T23:29:54.135Z,8.20
2023-03-02T23:32:21.339Z,8.40
2023-03-02T23:34:48.487Z,8.18
2023-03-02T23:37:16.151Z,9.20
2023-03-02T23:39:45.930Z,9.63
2023-03-02T23:42:13.163Z,9.88
2023-03-02T23:44:40.183Z,9.02
2023-03-02T23:47:07.463Z,8.68
2023-03-02T23:49:34.464Z,8.30
2023-03-02T23:52:01.620Z,9.05
2023-03-02T23:54:28.683Z,11.10
2023-03-02T23:56:55.888Z,9.68
2023-03-02T23:59:23.091Z,9.98
